Terminal Aerodrome Forecast
Issued by NWS Charleston, WV

Home | Current Version | Previous Version | Text Only | Print | Product List | Glossary On
Versions: 1 2 3 4 5 6 7 8 9 10 11 12 13 14 15 16 17 18 19 20 21
000
FTUS41 KRLX 300500
TAFBKW
TAF
KBKW 300538Z 3006/3106 13010KT P6SM BKN080
     FM301200 VRB03KT P6SM SCT035
     FM301500 18007KT P6SM FEW045
     FM310000 VRB03KT P6SM BKN050=

USA.gov is the U.S. government's official web portal to all federal, state and local government web resources and services.